sensor_id;sensor_type;location;lat;lon;timestamp;pressure;altitude;pressure_sealevel;temperature;humidity
19208;BME280;9737;59.466;18.036;2023-11-21T00:01:37;94485.09;;;0.27;84.00
19208;BME280;9737;59.466;18.036;2023-11-21T00:04:05;94483.63;;;0.18;84.25
19208;BME280;9737;59.466;18.036;2023-11-21T00:06:34;94470.13;;;0.08;84.19
19208;BME280;9737;59.466;18.036;2023-11-21T00:09:03;94492.91;;;0.21;84.43
19208;BME280;9737;59.466;18.036;2023-11-21T00:11:31;94531.38;;;0.40;84.16
19208;BME280;9737;59.466;18.036;2023-11-21T00:14:00;94510.84;;;0.30;83.98
19208;BME280;9737;59.466;18.036;2023-11-21T00:16:28;94497.78;;;0.30;84.02
19208;BME280;9737;59.466;18.036;2023-11-21T00:18:56;94509.59;;;0.26;84.45
19208;BME280;9737;59.466;18.036;2023-11-21T00:21:24;94525.75;;;0.37;84.18
19208;BME280;9737;59.466;18.036;2023-11-21T00:23:52;94528.97;;;0.39;84.13
19208;BME280;9737;59.466;18.036;2023-11-21T00:26:21;94489.44;;;0.14;84.11
19208;BME280;9737;59.466;18.036;2023-11-21T00:28:50;94527.34;;;0.38;84.29
19208;BME280;9737;59.466;18.036;2023-11-21T00:31:18;94524.53;;;0.39;84.29
19208;BME280;9737;59.466;18.036;2023-11-21T00:33:46;94535.19;;;0.38;84.09
19208;BME280;9737;59.466;18.036;2023-11-21T00:36:14;94530.56;;;0.40;84.06
19208;BME280;9737;59.466;18.036;2023-11-21T00:38:43;94527.97;;;0.40;83.92
19208;BME280;9737;59.466;18.036;2023-11-21T00:41:11;94557.53;;;0.47;84.45
19208;BME280;9737;59.466;18.036;2023-11-21T00:43:40;94565.97;;;0.49;84.28
19208;BME280;9737;59.466;18.036;2023-11-21T00:46:09;94540.63;;;0.43;84.03
19208;BME280;9737;59.466;18.036;2023-11-21T00:48:37;94528.97;;;0.39;84.50
19208;BME280;9737;59.466;18.036;2023-11-21T00:51:05;94514.25;;;0.31;84.28
19208;BME280;9737;59.466;18.036;2023-11-21T00:53:37;94521.31;;;0.37;84.49
19208;BME280;9737;59.466;18.036;2023-11-21T00:56:06;94508.38;;;0.22;84.46
19208;BME280;9737;59.466;18.036;2023-11-21T00:58:40;94514.88;;;0.33;84.63
19208;BME280;9737;59.466;18.036;2023-11-21T01:01:13;94520.72;;;0.35;84.53
19208;BME280;9737;59.466;18.036;2023-11-21T01:03:41;94518.91;;;0.36;84.04
19208;BME280;9737;59.466;18.036;2023-11-21T01:06:09;94560.34;;;0.45;84.44
19208;BME280;9737;59.466;18.036;2023-11-21T01:08:40;94494.88;;;0.12;84.32
19208;BME280;9737;59.466;18.036;2023-11-21T01:11:08;94542.63;;;0.41;84.52
19208;BME280;9737;59.466;18.036;2023-11-21T01:13:43;94522.91;;;0.32;84.33
19208;BME280;9737;59.466;18.036;2023-11-21T01:16:11;94534.19;;;0.39;84.53
19208;BME280;9737;59.466;18.036;2023-11-21T01:18:39;94553.69;;;0.43;84.43
19208;BME280;9737;59.466;18.036;2023-11-21T01:21:08;94560.16;;;0.47;84.31
19208;BME280;9737;59.466;18.036;2023-11-21T01:23:35;94566.97;;;0.48;84.37
19208;BME280;9737;59.466;18.036;2023-11-21T01:26:04;94567.19;;;0.46;84.58
19208;BME280;9737;59.466;18.036;2023-11-21T01:28:32;94520.34;;;0.10;84.44
19208;BME280;9737;59.466;18.036;2023-11-21T01:31:01;94556.28;;;0.36;84.49
19208;BME280;9737;59.466;18.036;2023-11-21T01:33:29;94575.44;;;0.50;84.52
19208;BME280;9737;59.466;18.036;2023-11-21T01:35:57;94484.09;;;-0.06;84.36
19208;BME280;9737;59.466;18.036;2023-11-21T01:38:26;94564.56;;;0.46;84.88
19208;BME280;9737;59.466;18.036;2023-11-21T01:40:54;94582.28;;;0.51;84.59
19208;BME280;9737;59.466;18.036;2023-11-21T01:43:22;94584.06;;;0.50;84.92
19208;BME280;9737;59.466;18.036;2023-11-21T01:45:50;94563.72;;;0.39;84.36
19208;BME280;9737;59.466;18.036;2023-11-21T01:48:20;94583.28;;;0.50;84.42
19208;BME280;9737;59.466;18.036;2023-11-21T01:50:48;94573.59;;;0.44;84.51
19208;BME280;9737;59.466;18.036;2023-11-21T01:53:16;94597.34;;;0.49;84.65
19208;BME280;9737;59.466;18.036;2023-11-21T01:55:45;94588.50;;;0.50;84.32
19208;BME280;9737;59.466;18.036;2023-11-21T01:58:14;94580.81;;;0.42;84.84
19208;BME280;9737;59.466;18.036;2023-11-21T02:00:43;94587.31;;;0.52;84.41
19208;BME280;9737;59.466;18.036;2023-11-21T02:03:11;94582.03;;;0.46;84.62
19208;BME280;9737;59.466;18.036;2023-11-21T02:05:41;94593.34;;;0.53;84.90
19208;BME280;9737;59.466;18.036;2023-11-21T02:08:10;94596.13;;;0.51;84.63
19208;BME280;9737;59.466;18.036;2023-11-21T02:10:38;94572.41;;;0.46;84.74
19208;BME280;9737;59.466;18.036;2023-11-21T02:13:07;94579.66;;;0.51;84.53
19208;BME280;9737;59.466;18.036;2023-11-21T02:15:35;94567.19;;;0.46;84.83
19208;BME280;9737;59.466;18.036;2023-11-21T02:18:05;94567.19;;;0.46;84.93
19208;BME280;9737;59.466;18.036;2023-11-21T02:20:33;94590.09;;;0.51;84.76
19208;BME280;9737;59.466;18.036;2023-11-21T02:23:05;94577.25;;;0.49;84.40
19208;BME280;9737;59.466;18.036;2023-11-21T02:25:33;94595.94;;;0.53;84.57
19208;BME280;9737;59.466;18.036;2023-11-21T02:28:05;94521.56;;;0.08;84.91
19208;BME280;9737;59.466;18.036;2023-11-21T02:30:34;94582.28;;;0.51;84.95
19208;BME280;9737;59.466;18.036;2023-11-21T02:33:02;94594.94;;;0.54;84.55
19208;BME280;9737;59.466;18.036;2023-11-21T02:35:31;94601.78;;;0.55;84.38
19208;BME280;9737;59.466;18.036;2023-11-21T02:37:59;94608.63;;;0.56;84.52
19208;BME280;9737;59.466;18.036;2023-11-21T02:40:28;94599.97;;;0.55;84.58
19208;BME280;9737;59.466;18.036;2023-11-21T02:42:57;94597.56;;;0.54;85.17
19208;BME280;9737;59.466;18.036;2023-11-21T02:45:26;94585.88;;;0.50;85.05
19208;BME280;9737;59.466;18.036;2023-11-21T02:47:54;94618.72;;;0.59;84.68
19208;BME280;9737;59.466;18.036;2023-11-21T02:50:24;94626.97;;;0.63;84.84
19208;BME280;9737;59.466;18.036;2023-11-21T02:52:51;94640.84;;;0.63;84.97
19208;BME280;9737;59.466;18.036;2023-11-21T02:55:19;94634.00;;;0.62;85.15
19208;BME280;9737;59.466;18.036;2023-11-21T02:57:48;94641.28;;;0.67;84.88
19208;BME280;9737;59.466;18.036;2023-11-21T03:00:17;94647.50;;;0.66;84.79
19208;BME280;9737;59.466;18.036;2023-11-21T03:02:45;94649.91;;;0.67;84.86
19208;BME280;9737;59.466;18.036;2023-11-21T03:05:14;94678.69;;;0.74;84.79
19208;BME280;9737;59.466;18.036;2023-11-21T03:07:42;94665.03;;;0.72;84.90
19208;BME280;9737;59.466;18.036;2023-11-21T03:10:10;94694.81;;;0.77;85.27
19208;BME280;9737;59.466;18.036;2023-11-21T03:12:39;94688.97;;;0.75;84.92
19208;BME280;9737;59.466;18.036;2023-11-21T03:15:09;94670.44;;;0.70;85.09
19208;BME280;9737;59.466;18.036;2023-11-21T03:17:36;94686.34;;;0.75;84.73
19208;BME280;9737;59.466;18.036;2023-11-21T03:20:05;94703.25;;;0.79;84.83
19208;BME280;9737;59.466;18.036;2023-11-21T03:22:38;94710.91;;;0.81;84.95
19208;BME280;9737;59.466;18.036;2023-11-21T03:25:07;94737.13;;;0.87;84.89
19208;BME280;9737;59.466;18.036;2023-11-21T03:27:38;94719.19;;;0.84;84.95
19208;BME280;9737;59.466;18.036;2023-11-21T03:30:09;94719.38;;;0.83;84.90
19208;BME280;9737;59.466;18.036;2023-11-21T03:32:37;94715.94;;;0.82;84.94
19208;BME280;9737;59.466;18.036;2023-11-21T03:35:05;94710.91;;;0.81;85.21
19208;BME280;9737;59.466;18.036;2023-11-21T03:37:33;94743.59;;;0.91;85.08
19208;BME280;9737;59.466;18.036;2023-11-21T03:40:02;94752.44;;;0.90;84.87
19208;BME280;9737;59.466;18.036;2023-11-21T03:42:30;94758.88;;;0.95;84.97
19208;BME280;9737;59.466;18.036;2023-11-21T03:44:58;94759.88;;;0.93;85.05
19208;BME280;9737;59.466;18.036;2023-11-21T03:47:28;94764.13;;;0.95;85.15
19208;BME280;9737;59.466;18.036;2023-11-21T03:49:56;94765.72;;;0.96;85.02
19208;BME280;9737;59.466;18.036;2023-11-21T03:52:23;94770.16;;;0.95;85.15
19208;BME280;9737;59.466;18.036;2023-11-21T03:54:51;94754.03;;;0.91;85.48
19208;BME280;9737;59.466;18.036;2023-11-21T03:57:19;94775.81;;;0.99;85.08
19208;BME280;9737;59.466;18.036;2023-11-21T03:59:47;94770.78;;;0.97;85.26
19208;BME280;9737;59.466;18.036;2023-11-21T04:02:15;94769.16;;;0.96;85.12
19208;BME280;9737;59.466;18.036;2023-11-21T04:04:45;94758.09;;;0.94;84.71
19208;BME280;9737;59.466;18.036;2023-11-21T04:07:13;94781.84;;;0.99;84.92
19208;BME280;9737;59.466;18.036;2023-11-21T04:09:41;94778.41;;;0.99;85.21
19208;BME280;9737;59.466;18.036;2023-11-21T04:12:09;94774.81;;;1.00;85.10
19208;BME280;9737;59.466;18.036;2023-11-21T04:14:37;94778.41;;;0.99;85.26
19208;BME280;9737;59.466;18.036;2023-11-21T04:17:05;94772.56;;;0.97;85.18
19208;BME280;9737;59.466;18.036;2023-11-21T04:19:34;94775.00;;;0.98;85.07
19208;BME280;9737;59.466;18.036;2023-11-21T04:22:03;94799.56;;;1.04;85.19
19208;BME280;9737;59.466;18.036;2023-11-21T04:24:31;94790.50;;;1.00;85.28
19208;BME280;9737;59.466;18.036;2023-11-21T04:26:59;94782.66;;;1.00;85.30
19208;BME280;9737;59.466;18.036;2023-11-21T04:29:26;94771.78;;;0.96;85.19
19208;BME280;9737;59.466;18.036;2023-11-21T04:31:55;94791.91;;;1.02;85.46
19208;BME280;9737;59.466;18.036;2023-11-21T04:34:22;94808.84;;;1.06;84.83
19208;BME280;9737;59.466;18.036;2023-11-21T04:36:50;94820.53;;;1.10;85.03
19208;BME280;9737;59.466;18.036;2023-11-21T04:39:19;94797.97;;;1.03;85.42
19208;BME280;9737;59.466;18.036;2023-11-21T04:41:47;94826.97;;;1.08;85.43
19208;BME280;9737;59.466;18.036;2023-11-21T04:44:15;94813.28;;;1.06;84.91
19208;BME280;9737;59.466;18.036;2023-11-21T04:46:43;94802.19;;;1.04;85.25
19208;BME280;9737;59.466;18.036;2023-11-21T04:49:11;94818.13;;;1.09;85.45
19208;BME280;9737;59.466;18.036;2023-11-21T04:51:39;94813.28;;;1.06;85.31
19208;BME280;9737;59.466;18.036;2023-11-21T04:54:07;94823.34;;;1.09;85.14
19208;BME280;9737;59.466;18.036;2023-11-21T04:56:37;94832.63;;;1.11;85.38
19208;BME280;9737;59.466;18.036;2023-11-21T04:59:04;94796.34;;;1.02;85.30
19208;BME280;9737;59.466;18.036;2023-11-21T05:01:32;94807.41;;;1.04;85.31
19208;BME280;9737;59.466;18.036;2023-11-21T05:04:00;94827.56;;;1.10;85.64
19208;BME280;9737;59.466;18.036;2023-11-21T05:06:29;94838.66;;;1.12;85.46
19208;BME280;9737;59.466;18.036;2023-11-21T05:08:56;94834.22;;;1.12;85.65
19208;BME280;9737;59.466;18.036;2023-11-21T05:11:25;94830.19;;;1.10;85.31
19208;BME280;9737;59.466;18.036;2023-11-21T05:13:54;94815.69;;;1.07;85.16
19208;BME280;9737;59.466;18.036;2023-11-21T05:16:25;94825.34;;;1.07;85.74
19208;BME280;9737;59.466;18.036;2023-11-21T05:18:54;94801.56;;;1.02;85.52
19208;BME280;9737;59.466;18.036;2023-11-21T05:21:28;94809.03;;;1.05;85.28
19208;BME280;9737;59.466;18.036;2023-11-21T05:23:56;94799.97;;;1.01;85.32
19208;BME280;9737;59.466;18.036;2023-11-21T05:26:24;94830.19;;;1.10;85.74
19208;BME280;9737;59.466;18.036;2023-11-21T05:28:53;94835.03;;;1.13;85.40
19208;BME280;9737;59.466;18.036;2023-11-21T05:31:21;94830.38;;;1.08;85.29
19208;BME280;9737;59.466;18.036;2023-11-21T05:33:49;94818.50;;;1.06;84.99
19208;BME280;9737;59.466;18.036;2023-11-21T05:36:17;94831.81;;;1.11;85.34
19208;BME280;9737;59.466;18.036;2023-11-21T05:38:45;94817.69;;;1.05;85.73
19208;BME280;9737;59.466;18.036;2023-11-21T05:41:12;94822.13;;;1.05;85.45
19208;BME280;9737;59.466;18.036;2023-11-21T05:43:40;94816.50;;;1.08;85.40
19208;BME280;9737;59.466;18.036;2023-11-21T05:46:10;94806.81;;;1.02;85.33
19208;BME280;9737;59.466;18.036;2023-11-21T05:48:38;94811.66;;;1.05;85.08
19208;BME280;9737;59.466;18.036;2023-11-21T05:51:06;94802.38;;;1.02;85.60
19208;BME280;9737;59.466;18.036;2023-11-21T05:53:35;94805.19;;;1.01;85.67
19208;BME280;9737;59.466;18.036;2023-11-21T05:56:03;94801.56;;;1.02;85.32
19208;BME280;9737;59.466;18.036;2023-11-21T05:58:31;94787.28;;;0.98;85.34
19208;BME280;9737;59.466;18.036;2023-11-21T06:00:59;94787.06;;;0.99;85.23
19208;BME280;9737;59.466;18.036;2023-11-21T06:03:28;94774.56;;;0.95;85.35
19208;BME280;9737;59.466;18.036;2023-11-21T06:05:56;94766.13;;;0.92;85.40
19208;BME280;9737;59.466;18.036;2023-11-21T06:08:24;94786.66;;;0.96;85.22
19208;BME280;9737;59.466;18.036;2023-11-21T06:10:52;94778.81;;;0.96;85.22
19208;BME280;9737;59.466;18.036;2023-11-21T06:13:20;94783.03;;;0.97;85.61
19208;BME280;9737;59.466;18.036;2023-11-21T06:15:51;94795.91;;;0.98;85.46
19208;BME280;9737;59.466;18.036;2023-11-21T06:18:19;94800.97;;;1.00;85.44
19208;BME280;9737;59.466;18.036;2023-11-21T06:20:48;94791.50;;;0.99;85.57
19208;BME280;9737;59.466;18.036;2023-11-21T06:23:16;94805.00;;;1.02;85.82
19208;BME280;9737;59.466;18.036;2023-11-21T06:25:44;94799.97;;;1.01;85.23
19208;BME280;9737;59.466;18.036;2023-11-21T06:28:12;94798.34;;;1.00;85.31
19208;BME280;9737;59.466;18.036;2023-11-21T06:30:44;94806.81;;;1.02;85.49
19208;BME280;9737;59.466;18.036;2023-11-21T06:33:12;94825.53;;;1.05;85.54
19208;BME280;9737;59.466;18.036;2023-11-21T06:35:40;94812.47;;;1.05;85.49
19208;BME280;9737;59.466;18.036;2023-11-21T06:38:09;94810.03;;;1.04;85.68
19208;BME280;9737;59.466;18.036;2023-11-21T06:40:37;94832.81;;;1.10;85.57
19208;BME280;9737;59.466;18.036;2023-11-21T06:43:05;94816.06;;;1.04;85.95
19208;BME280;9737;59.466;18.036;2023-11-21T06:45:33;94828.34;;;1.04;85.33
19208;BME280;9737;59.466;18.036;2023-11-21T06:48:01;94828.78;;;1.07;85.50
19208;BME280;9737;59.466;18.036;2023-11-21T06:50:29;94803.38;;;1.01;85.77
19208;BME280;9737;59.466;18.036;2023-11-21T06:52:57;94796.72;;;0.99;85.45
19208;BME280;9737;59.466;18.036;2023-11-21T06:55:26;94817.69;;;1.05;85.44
19208;BME280;9737;59.466;18.036;2023-11-21T06:57:54;94819.50;;;1.05;85.56
19208;BME280;9737;59.466;18.036;2023-11-21T07:00:22;94814.28;;;1.05;85.94
19208;BME280;9737;59.466;18.036;2023-11-21T07:02:50;94815.28;;;1.04;85.80
19208;BME280;9737;59.466;18.036;2023-11-21T07:05:18;94810.22;;;1.02;85.70
19208;BME280;9737;59.466;18.036;2023-11-21T07:07:48;94816.25;;;1.03;85.13
19208;BME280;9737;59.466;18.036;2023-11-21T07:10:17;94818.88;;;1.03;85.80
19208;BME280;9737;59.466;18.036;2023-11-21T07:12:46;94843.28;;;1.10;85.58
19208;BME280;9737;59.466;18.036;2023-11-21T07:15:14;94848.31;;;1.11;85.48
19208;BME280;9737;59.466;18.036;2023-11-21T07:17:42;94820.13;;;1.07;85.68
19208;BME280;9737;59.466;18.036;2023-11-21T07:20:11;94810.03;;;1.04;85.53
19208;BME280;9737;59.466;18.036;2023-11-21T07:22:40;94836.63;;;1.07;85.72
19208;BME280;9737;59.466;18.036;2023-11-21T07:25:08;94835.41;;;1.10;85.63
19208;BME280;9737;59.466;18.036;2023-11-21T07:27:37;94843.88;;;1.12;85.60
19208;BME280;9737;59.466;18.036;2023-11-21T07:30:07;94849.94;;;1.12;85.60
19208;BME280;9737;59.466;18.036;2023-11-21T07:32:36;94850.72;;;1.13;85.95
19208;BME280;9737;59.466;18.036;2023-11-21T07:35:08;94857.59;;;1.14;85.69
19208;BME280;9737;59.466;18.036;2023-11-21T07:37:36;94857.59;;;1.14;85.67
19208;BME280;9737;59.466;18.036;2023-11-21T07:40:05;94858.22;;;1.16;85.68
19208;BME280;9737;59.466;18.036;2023-11-21T07:42:35;94880.38;;;1.20;85.90
19208;BME280;9737;59.466;18.036;2023-11-21T07:45:06;94883.81;;;1.20;85.50
19208;BME280;9737;59.466;18.036;2023-11-21T07:47:34;94881.00;;;1.22;85.32
19208;BME280;9737;59.466;18.036;2023-11-21T07:50:03;94883.00;;;1.20;85.63
19208;BME280;9737;59.466;18.036;2023-11-21T07:52:31;94876.16;;;1.19;85.73
19208;BME280;9737;59.466;18.036;2023-11-21T07:54:59;94884.00;;;1.19;85.69
19208;BME280;9737;59.466;18.036;2023-11-21T07:57:28;94883.63;;;1.22;85.34
19208;BME280;9737;59.466;18.036;2023-11-21T07:59:56;94876.97;;;1.19;85.77
19208;BME280;9737;59.466;18.036;2023-11-21T08:02:25;94893.09;;;1.23;85.84
19208;BME280;9737;59.466;18.036;2023-11-21T08:04:54;94888.84;;;1.22;85.81
19208;BME280;9737;59.466;18.036;2023-11-21T08:07:23;94872.53;;;1.20;85.84
19208;BME280;9737;59.466;18.036;2023-11-21T08:09:52;94879.59;;;1.19;85.85
19208;BME280;9737;59.466;18.036;2023-11-21T08:12:20;94879.38;;;1.21;85.50
19208;BME280;9737;59.466;18.036;2023-11-21T08:14:48;94887.84;;;1.23;85.90
19208;BME280;9737;59.466;18.036;2023-11-21T08:17:15;94889.84;;;1.21;85.67
19208;BME280;9737;59.466;18.036;2023-11-21T08:19:47;94880.94;;;1.15;85.92
19208;BME280;9737;59.466;18.036;2023-11-21T08:22:16;94876.16;;;1.19;85.44
19208;BME280;9737;59.466;18.036;2023-11-21T08:24:44;94876.16;;;1.19;85.70
19208;BME280;9737;59.466;18.036;2023-11-21T08:27:13;94883.00;;;1.20;85.49
19208;BME280;9737;59.466;18.036;2023-11-21T08:29:42;94881.38;;;1.19;85.85
19208;BME280;9737;59.466;18.036;2023-11-21T08:32:10;94884.63;;;1.21;85.80
19208;BME280;9737;59.466;18.036;2023-11-21T08:34:38;94885.44;;;1.21;85.90
19208;BME280;9737;59.466;18.036;2023-11-21T08:37:08;94887.03;;;1.22;85.81
19208;BME280;9737;59.466;18.036;2023-11-21T08:39:37;94925.34;;;1.30;85.71
19208;BME280;9737;59.466;18.036;2023-11-21T08:42:05;94954.78;;;1.39;85.58
19208;BME280;9737;59.466;18.036;2023-11-21T08:44:33;94981.84;;;1.46;85.76
19208;BME280;9737;59.466;18.036;2023-11-21T08:47:01;94994.38;;;1.50;85.86
19208;BME280;9737;59.466;18.036;2023-11-21T08:49:33;95015.53;;;1.55;85.90
19208;BME280;9737;59.466;18.036;2023-11-21T08:52:02;95003.66;;;1.53;85.82
19208;BME280;9737;59.466;18.036;2023-11-21T08:54:32;95022.19;;;1.58;85.58
19208;BME280;9737;59.466;18.036;2023-11-21T08:57:01;95011.94;;;1.57;85.47
19208;BME280;9737;59.466;18.036;2023-11-21T08:59:29;95052.84;;;1.64;85.59
19208;BME280;9737;59.466;18.036;2023-11-21T09:01:57;95036.72;;;1.61;85.86
19208;BME280;9737;59.466;18.036;2023-11-21T09:04:25;95040.78;;;1.63;85.87
19208;BME280;9737;59.466;18.036;2023-11-21T09:06:54;95054.47;;;1.65;85.69
19208;BME280;9737;59.466;18.036;2023-11-21T09:09:22;95072.25;;;1.70;85.99
19208;BME280;9737;59.466;18.036;2023-11-21T09:11:52;95062.13;;;1.67;85.76
19208;BME280;9737;59.466;18.036;2023-11-21T09:14:20;95077.47;;;1.70;85.71
19208;BME280;9737;59.466;18.036;2023-11-21T09:16:48;95086.59;;;1.74;85.78
19208;BME280;9737;59.466;18.036;2023-11-21T09:19:17;95077.47;;;1.70;85.53
19208;BME280;9737;59.466;18.036;2023-11-21T09:21:45;95078.09;;;1.72;85.90
19208;BME280;9737;59.466;18.036;2023-11-21T09:24:12;95103.56;;;1.78;85.93
19208;BME280;9737;59.466;18.036;2023-11-21T09:26:40;95100.13;;;1.77;85.62
19208;BME280;9737;59.466;18.036;2023-11-21T09:29:09;95102.56;;;1.79;85.77
19208;BME280;9737;59.466;18.036;2023-11-21T09:31:37;95095.88;;;1.76;85.42
19208;BME280;9737;59.466;18.036;2023-11-21T09:34:05;95084.94;;;1.73;85.74
19208;BME280;9737;59.466;18.036;2023-11-21T09:36:33;95106.16;;;1.78;85.63
19208;BME280;9737;59.466;18.036;2023-11-21T09:39:01;95105.38;;;1.77;85.77
19208;BME280;9737;59.466;18.036;2023-11-21T09:41:39;95111.41;;;1.78;85.57
19208;BME280;9737;59.466;18.036;2023-11-21T09:44:13;95096.88;;;1.75;85.88
19208;BME280;9737;59.466;18.036;2023-11-21T09:46:47;95082.34;;;1.73;86.02
19208;BME280;9737;59.466;18.036;2023-11-21T09:49:18;95063.34;;;1.64;85.58
19208;BME280;9737;59.466;18.036;2023-11-21T09:51:46;95033.47;;;1.59;85.78
19208;BME280;9737;59.466;18.036;2023-11-21T09:54:16;95038.53;;;1.60;85.82
19208;BME280;9737;59.466;18.036;2023-11-21T09:56:46;95068.00;;;1.69;85.84
19208;BME280;9737;59.466;18.036;2023-11-21T09:59:15;95102.94;;;1.76;85.56
19208;BME280;9737;59.466;18.036;2023-11-21T10:01:43;95096.06;;;1.75;85.60
19208;BME280;9737;59.466;18.036;2023-11-21T10:04:11;95113.66;;;1.81;85.85
19208;BME280;9737;59.466;18.036;2023-11-21T10:06:41;95120.50;;;1.82;85.95
19208;BME280;9737;59.466;18.036;2023-11-21T10:09:10;95118.88;;;1.81;85.66
19208;BME280;9737;59.466;18.036;2023-11-21T10:11:40;95105.56;;;1.76;85.83
19208;BME280;9737;59.466;18.036;2023-11-21T10:14:10;95120.69;;;1.80;85.81
19208;BME280;9737;59.466;18.036;2023-11-21T10:16:43;95083.13;;;1.73;85.74
19208;BME280;9737;59.466;18.036;2023-11-21T10:19:14;95074.84;;;1.70;85.67
19208;BME280;9737;59.466;18.036;2023-11-21T10:21:42;95078.47;;;1.69;86.04
19208;BME280;9737;59.466;18.036;2023-11-21T10:24:10;95087.56;;;1.73;85.74
19208;BME280;9737;59.466;18.036;2023-11-21T10:26:39;95077.47;;;1.70;85.84
19208;BME280;9737;59.466;18.036;2023-11-21T10:29:19;95044.56;;;1.61;85.93
19208;BME280;9737;59.466;18.036;2023-11-21T10:31:50;95024.19;;;1.56;85.70
19208;BME280;9737;59.466;18.036;2023-11-21T10:34:21;95000.41;;;1.51;85.97
19208;BME280;9737;59.466;18.036;2023-11-21T10:36:49;94973.53;;;1.42;86.12
19208;BME280;9737;59.466;18.036;2023-11-21T10:39:17;94968.50;;;1.41;85.81
19208;BME280;9737;59.466;18.036;2023-11-21T10:41:46;94977.78;;;1.43;85.91
19208;BME280;9737;59.466;18.036;2023-11-21T10:44:16;94960.84;;;1.39;85.89
19208;BME280;9737;59.466;18.036;2023-11-21T10:46:50;94970.91;;;1.42;85.63
19208;BME280;9737;59.466;18.036;2023-11-21T10:49:22;94965.06;;;1.40;85.88
19208;BME280;9737;59.466;18.036;2023-11-21T10:51:52;94945.31;;;1.38;86.23
19208;BME280;9737;59.466;18.036;2023-11-21T10:54:21;94961.63;;;1.40;85.47
19208;BME280;9737;59.466;18.036;2023-11-21T10:56:50;94973.53;;;1.42;85.84
19208;BME280;9737;59.466;18.036;2023-11-21T10:59:20;94995.34;;;1.49;85.86
19208;BME280;9737;59.466;18.036;2023-11-21T11:01:54;95023.41;;;1.55;85.83
19208;BME280;9737;59.466;18.036;2023-11-21T11:04:27;94994.38;;;1.50;85.62
19208;BME280;9737;59.466;18.036;2023-11-21T11:06:55;95016.53;;;1.54;85.93
19208;BME280;9737;59.466;18.036;2023-11-21T11:09:24;95036.72;;;1.61;85.70
19208;BME280;9737;59.466;18.036;2023-11-21T11:11:52;95040.16;;;1.61;85.64
19208;BME280;9737;59.466;18.036;2023-11-21T11:14:21;95043.56;;;1.62;85.70
19208;BME280;9737;59.466;18.036;2023-11-21T11:16:54;95030.25;;;1.57;85.95
19208;BME280;9737;59.466;18.036;2023-11-21T11:19:23;95020.16;;;1.53;85.65
19208;BME280;9737;59.466;18.036;2023-11-21T11:22:00;95037.09;;;1.58;85.60
19208;BME280;9737;59.466;18.036;2023-11-21T11:25:03;95017.72;;;1.52;85.65
19208;BME280;9737;59.466;18.036;2023-11-21T11:27:46;95003.22;;;1.49;85.53
19208;BME280;9737;59.466;18.036;2023-11-21T11:30:23;94986.28;;;1.45;85.66
19208;BME280;9737;59.466;18.036;2023-11-21T11:33:05;94976.97;;;1.43;85.82
19208;BME280;9737;59.466;18.036;2023-11-21T11:35:42;94999.16;;;1.47;85.94
19208;BME280;9737;59.466;18.036;2023-11-21T11:38:14;95026.81;;;1.56;85.68
19208;BME280;9737;59.466;18.036;2023-11-21T11:40:45;95025.00;;;1.57;85.76
19208;BME280;9737;59.466;18.036;2023-11-21T11:43:24;95030.88;;;1.59;85.69
19208;BME280;9737;59.466;18.036;2023-11-21T11:45:55;95082.72;;;1.70;85.99
19208;BME280;9737;59.466;18.036;2023-11-21T11:48:25;95104.56;;;1.77;85.94
19208;BME280;9737;59.466;18.036;2023-11-21T11:51:03;95120.50;;;1.82;85.80
19208;BME280;9737;59.466;18.036;2023-11-21T11:53:39;95140.88;;;1.86;86.02
19208;BME280;9737;59.466;18.036;2023-11-21T11:56:25;95124.75;;;1.83;85.83
19208;BME280;9737;59.466;18.036;2023-11-21T11:58:55;95082.72;;;1.70;85.67
19208;BME280;9737;59.466;18.036;2023-11-21T12:01:25;95005.44;;;1.52;85.70
19208;BME280;9737;59.466;18.036;2023-11-21T12:04:27;94942.47;;;1.33;85.89
19208;BME280;9737;59.466;18.036;2023-11-21T12:07:02;94891.84;;;1.19;86.03
19208;BME280;9737;59.466;18.036;2023-11-21T12:09:31;94846.28;;;1.07;85.87
19208;BME280;9737;59.466;18.036;2023-11-21T12:12:00;94846.28;;;1.07;85.39
19208;BME280;9737;59.466;18.036;2023-11-21T12:14:28;94809.63;;;1.00;85.65
19208;BME280;9737;59.466;18.036;2023-11-21T12:16:56;94782.81;;;0.91;85.80
19208;BME280;9737;59.466;18.036;2023-11-21T12:19:25;94750.31;;;0.79;85.83
19208;BME280;9737;59.466;18.036;2023-11-21T12:21:53;94745.09;;;0.79;85.91
19208;BME280;9737;59.466;18.036;2023-11-21T12:24:22;94753.34;;;0.83;85.85
19208;BME280;9737;59.466;18.036;2023-11-21T12:26:50;94821.50;;;1.03;85.83
19208;BME280;9737;59.466;18.036;2023-11-21T12:29:18;94870.66;;;1.14;85.99
19208;BME280;9737;59.466;18.036;2023-11-21T12:31:48;94887.63;;;1.18;85.61
19208;BME280;9737;59.466;18.036;2023-11-21T12:34:16;94887.44;;;1.19;85.73
19208;BME280;9737;59.466;18.036;2023-11-21T12:36:46;94880.78;;;1.17;85.92
19208;BME280;9737;59.466;18.036;2023-11-21T12:39:15;94814.22;;;0.98;85.81
19208;BME280;9737;59.466;18.036;2023-11-21T12:41:43;94772.91;;;0.87;85.57
19208;BME280;9737;59.466;18.036;2023-11-21T12:44:12;94741.47;;;0.80;85.51
19208;BME280;9737;59.466;18.036;2023-11-21T12:46:41;94708.84;;;0.70;85.82
19208;BME280;9737;59.466;18.036;2023-11-21T12:49:12;94724.56;;;0.76;85.66
19208;BME280;9737;59.466;18.036;2023-11-21T12:51:46;94707.66;;;0.72;85.33
19208;BME280;9737;59.466;18.036;2023-11-21T12:54:14;94702.81;;;0.69;85.51
19208;BME280;9737;59.466;18.036;2023-11-21T12:56:45;94704.41;;;0.70;85.78
19208;BME280;9737;59.466;18.036;2023-11-21T12:59:13;94674.22;;;0.61;86.04
19208;BME280;9737;59.466;18.036;2023-11-21T13:01:43;94630.09;;;0.51;85.64
19208;BME280;9737;59.466;18.036;2023-11-21T13:04:11;94616.63;;;0.48;85.58
19208;BME280;9737;59.466;18.036;2023-11-21T13:06:39;94664.94;;;0.58;85.61
19208;BME280;9737;59.466;18.036;2023-11-21T13:09:10;94625.69;;;0.52;85.68
19208;BME280;9737;59.466;18.036;2023-11-21T13:11:38;94585.63;;;0.38;86.03
19208;BME280;9737;59.466;18.036;2023-11-21T13:14:07;94551.03;;;0.29;85.92
19208;BME280;9737;59.466;18.036;2023-11-21T13:16:37;94541.75;;;0.27;85.91
19208;BME280;9737;59.466;18.036;2023-11-21T13:19:05;94511.38;;;0.19;85.94
19208;BME280;9737;59.466;18.036;2023-11-21T13:21:35;94452.44;;;0.04;85.74